Time;durP1;ratioP1;P1;durP2;ratioP2;P2;SDS_P1;SDS_P2;PMS_P1;PMS_P2;Temp;Humidity;BMP_temperature;BMP_pressure;BME280_temperature;BME280_humidity;BME280_pressure;Samples;Min_cycle;Max_cycle;Signal;HPM_P1;HPM_P2
2024/02/03 00:01:41;;;;;;;18.48;11.60;;;;;;;6.59;52.23;99688.22;4992787;28;20343;-71
2024/02/03 00:04:06;;;;;;;19.50;12.55;;;;;;;6.50;53.09;99675.69;4975278;28;20521;-70
2024/02/03 00:06:32;;;;;;;20.90;12.23;;;;;;;6.54;52.76;99682.41;4992716;28;20066;-70
2024/02/03 00:08:57;;;;;;;19.52;11.48;;;;;;;6.50;52.84;99684.31;4974965;28;20117;-71
2024/02/03 00:11:23;;;;;;;21.40;12.80;;;;;;;6.48;52.86;99683.56;4975450;28;20035;-70
2024/02/03 00:13:49;;;;;;;22.58;12.60;;;;;;;6.42;52.77;99677.75;4959495;28;20086;-70
2024/02/03 00:16:15;;;;;;;24.55;13.55;;;;;;;6.44;52.78;99688.94;4959179;28;20040;-70
2024/02/03 00:18:40;;;;;;;22.33;13.05;;;;;;;6.44;52.48;99689.75;4992723;28;20113;-71
2024/02/03 00:21:06;;;;;;;21.52;13.50;;;;;;;6.37;52.67;99677.13;4975295;28;20211;-72
2024/02/03 00:23:32;;;;;;;21.52;13.20;;;;;;;6.39;52.79;99677.91;4975257;28;20042;-71
2024/02/03 00:25:57;;;;;;;22.60;13.45;;;;;;;6.34;52.91;99675.50;4993203;28;20092;-70
2024/02/03 00:28:23;;;;;;;20.60;12.85;;;;;;;6.38;52.85;99686.59;4975543;28;20118;-71
2024/02/03 00:30:48;;;;;;;22.13;13.02;;;;;;;6.36;52.43;99678.91;4975417;28;20469;-71
2024/02/03 00:33:14;;;;;;;20.92;13.43;;;;;;;6.35;52.63;99679.78;4975251;28;20049;-70
2024/02/03 00:35:40;;;;;;;21.48;12.80;;;;;;;6.33;52.38;99672.09;4992666;28;20034;-71
2024/02/03 00:38:05;;;;;;;22.35;12.82;;;;;;;6.28;53.21;99668.03;4975250;28;20097;-71
2024/02/03 00:40:31;;;;;;;19.65;13.27;;;;;;;6.26;52.31;99662.91;4943658;28;20477;-69
2024/02/03 00:42:56;;;;;;;21.63;12.40;;;;;;;6.26;52.67;99668.09;4975282;28;20082;-71
2024/02/03 00:45:22;;;;;;;19.48;12.77;;;;;;;6.27;52.49;99677.53;4959249;28;20066;-70
2024/02/03 00:47:47;;;;;;;20.92;12.70;;;;;;;6.26;52.64;99675.00;4975309;28;20047;-70
2024/02/03 00:50:16;;;;;;;19.75;12.23;;;;;;;6.21;52.86;99671.78;4992478;28;20041;-70
2024/02/03 00:52:42;;;;;;;20.02;13.32;;;;;;;6.19;52.69;99671.00;4959277;28;20405;-71
2024/02/03 00:55:08;;;;;;;18.90;12.80;;;;;;;6.22;52.94;99673.47;4961184;28;20128;-71
2024/02/03 00:57:34;;;;;;;18.15;12.10;;;;;;;6.14;52.76;99661.66;4978959;28;20502;-71
2024/02/03 00:59:59;;;;;;;17.05;11.23;;;;;;;6.12;52.57;99660.03;4947382;28;20030;-71
2024/02/03 01:02:25;;;;;;;19.17;10.63;;;;;;;6.16;52.78;99659.00;4962501;28;20038;-71
2024/02/03 01:04:50;;;;;;;16.67;11.18;;;;;;;6.11;52.56;99648.00;4993281;28;20037;-71
2024/02/03 01:07:16;;;;;;;16.75;11.40;;;;;;;6.13;52.67;99651.38;4997911;28;20042;-71
2024/02/03 01:09:41;;;;;;;17.95;11.50;;;;;;;6.06;52.76;99640.44;4998361;28;20096;-70
2024/02/03 01:12:07;;;;;;;16.25;11.02;;;;;;;6.08;52.67;99651.56;4981823;28;20046;-70
2024/02/03 01:14:32;;;;;;;18.02;11.77;;;;;;;6.07;52.68;99646.44;4981974;28;20049;-69
2024/02/03 01:16:58;;;;;;;17.50;10.75;;;;;;;6.04;52.88;99649.16;4997900;28;20116;-70
2024/02/03 01:19:24;;;;;;;17.50;10.77;;;;;;;6.02;52.34;99651.00;5015580;28;20121;-70
2024/02/03 01:21:49;;;;;;;18.15;11.15;;;;;;;5.98;52.74;99648.53;5014581;28;20070;-69
2024/02/03 01:24:15;;;;;;;20.45;11.23;;;;;;;5.95;52.86;99652.97;4998399;28;20032;-70
2024/02/03 01:26:41;;;;;;;16.60;10.68;;;;;;;5.88;52.83;99647.22;4998001;28;20121;-70
2024/02/03 01:29:06;;;;;;;15.55;10.63;;;;;;;5.90;52.62;99655.75;4997757;28;20122;-71
2024/02/03 01:31:32;;;;;;;16.60;10.45;;;;;;;5.84;52.60;99645.66;4997673;28;20431;-71
2024/02/03 01:33:57;;;;;;;16.70;10.30;;;;;;;5.84;52.21;99642.22;4981353;28;20042;-70
2024/02/03 01:36:23;;;;;;;16.73;10.38;;;;;;;5.85;52.95;99642.16;4981498;28;20451;-70
2024/02/03 01:38:49;;;;;;;17.67;10.48;;;;;;;5.87;52.43;99640.34;4997668;28;20086;-72
2024/02/03 01:41:15;;;;;;;15.82;9.93;;;;;;;5.87;52.84;99649.88;4997474;28;20116;-70
2024/02/03 01:43:40;;;;;;;15.85;10.27;;;;;;;5.86;52.43;99645.59;5015024;28;20124;-70
2024/02/03 01:46:06;;;;;;;16.50;10.57;;;;;;;5.85;52.59;99641.31;5015114;28;20490;-71
2024/02/03 01:48:33;;;;;;;15.57;9.75;;;;;;;5.84;52.70;99637.88;4965021;28;20030;-71
2024/02/03 01:50:58;;;;;;;14.90;9.90;;;;;;;5.83;52.86;99633.59;4981300;28;20046;-71
2024/02/03 01:53:24;;;;;;;14.07;9.50;;;;;;;5.84;52.59;99635.28;4980940;28;20131;-71
2024/02/03 01:55:50;;;;;;;17.13;10.20;;;;;;;5.85;53.04;99639.56;4981102;28;20037;-70
2024/02/03 01:58:16;;;;;;;16.88;9.95;;;;;;;5.79;52.88;99622.53;4981350;28;20046;-71
2024/02/03 02:00:41;;;;;;;15.98;9.52;;;;;;;5.84;52.81;99626.69;4981352;28;20038;-71
2024/02/03 02:03:07;;;;;;;15.05;9.30;;;;;;;5.84;52.55;99626.69;4996589;28;20046;-71
2024/02/03 02:05:32;;;;;;;16.45;9.98;;;;;;;5.83;52.59;99623.22;4996393;28;20038;-71
2024/02/03 02:07:58;;;;;;;15.43;9.48;;;;;;;5.82;52.64;99624.16;5014500;28;20044;-71
2024/02/03 02:10:23;;;;;;;17.02;9.65;;;;;;;5.75;52.55;99614.94;4997065;28;20038;-71
2024/02/03 02:12:49;;;;;;;14.93;9.57;;;;;;;5.73;52.25;99615.00;4997262;28;20119;-71
2024/02/03 02:15:15;;;;;;;14.25;9.75;;;;;;;5.77;52.37;99620.88;4980814;28;20095;-72
2024/02/03 02:17:40;;;;;;;15.65;9.68;;;;;;;5.76;52.66;99627.00;5014413;28;20399;-72
2024/02/03 02:20:10;;;;;;;15.38;9.48;;;;;;;5.74;52.58;99628.78;4996618;28;20073;-71
2024/02/03 02:22:36;;;;;;;16.50;9.48;;;;;;;5.71;52.40;99626.34;4981068;28;20413;-71
2024/02/03 02:25:02;;;;;;;13.55;9.30;;;;;;;5.69;52.52;99626.38;4996689;28;20041;-72
2024/02/03 02:27:28;;;;;;;14.50;9.65;;;;;;;5.68;52.60;99629.91;4980828;28;20060;-71
2024/02/03 02:29:54;;;;;;;15.38;9.73;;;;;;;5.65;52.54;99627.44;4996311;28;20516;-71
2024/02/03 02:32:19;;;;;;;16.25;10.68;;;;;;;5.63;52.82;99626.69;5014119;28;20482;-71
2024/02/03 02:34:45;;;;;;;15.45;10.18;;;;;;;5.60;53.07;99625.03;4996262;28;20038;-70
2024/02/03 02:37:10;;;;;;;17.42;9.80;;;;;;;5.55;52.72;99618.34;4996550;28;20042;-72
2024/02/03 02:39:36;;;;;;;16.80;9.85;;;;;;;5.55;52.94;99621.81;5014247;28;20062;-70
2024/02/03 02:42:02;;;;;;;19.08;10.55;;;;;;;5.48;53.03;99619.53;4980452;28;20572;-70
2024/02/03 02:44:27;;;;;;;15.27;10.30;;;;;;;5.50;52.96;99621.13;5013748;28;20026;-72
2024/02/03 02:46:52;;;;;;;15.75;9.95;;;;;;;5.47;52.97;99615.25;4996043;28;20072;-70
2024/02/03 02:49:18;;;;;;;16.60;10.27;;;;;;;5.43;53.30;99620.56;4979973;28;20511;-71
2024/02/03 02:51:43;;;;;;;16.35;9.88;;;;;;;5.36;53.28;99608.78;5013491;28;20057;-70
2024/02/03 02:54:09;;;;;;;16.45;9.43;;;;;;;5.38;53.03;99611.31;4996081;28;20038;-70
2024/02/03 02:56:34;;;;;;;19.25;10.13;;;;;;;5.30;53.38;99605.56;4980041;28;20041;-71
2024/02/03 02:59:00;;;;;;;14.75;10.20;;;;;;;5.32;53.11;99611.56;4996111;28;20030;-71
2024/02/03 03:01:25;;;;;;;18.15;10.48;;;;;;;5.29;53.14;99604.75;4996065;28;20565;-70
2024/02/03 03:03:53;;;;;;;15.85;9.85;;;;;;;5.17;52.77;99594.88;4995697;28;20069;-71
2024/02/03 03:06:18;;;;;;;16.63;9.98;;;;;;;5.23;53.26;99611.03;4979893;28;20065;-71
2024/02/03 03:08:44;;;;;;;14.68;9.38;;;;;;;5.21;52.92;99604.22;4980326;28;20505;-71
2024/02/03 03:11:12;;;;;;;15.82;9.77;;;;;;;5.20;52.92;99612.88;5013209;28;20045;-71
2024/02/03 03:13:38;;;;;;;15.32;9.55;;;;;;;5.13;52.93;99599.34;4979442;28;20064;-69
2024/02/03 03:16:04;;;;;;;14.77;8.75;;;;;;;5.10;53.25;99601.22;4994834;28;20045;-70
2024/02/03 03:18:30;;;;;;;13.55;9.32;;;;;;;5.06;52.82;99596.16;4995321;28;20042;-69
2024/02/03 03:20:58;;;;;;;14.38;9.43;;;;;;;5.07;53.16;99607.34;4979590;28;20034;-70
2024/02/03 03:23:23;;;;;;;13.10;9.10;;;;;;;5.06;53.20;99608.25;4979628;28;20037;-72
2024/02/03 03:25:49;;;;;;;14.45;8.80;;;;;;;5.06;53.13;99605.66;4995551;28;20049;-71
2024/02/03 03:28:14;;;;;;;14.93;9.00;;;;;;;5.04;53.11;99605.75;5013050;28;20034;-69
2024/02/03 03:30:40;;;;;;;14.90;9.15;;;;;;;4.95;52.98;99598.34;5013085;28;20038;-71
2024/02/03 03:33:05;;;;;;;14.95;9.70;;;;;;;5.01;52.99;99605.88;4979555;28;20069;-71
2024/02/03 03:35:31;;;;;;;15.05;9.32;;;;;;;4.93;53.29;99594.13;4994893;28;20112;-70
2024/02/03 03:37:57;;;;;;;14.38;8.88;;;;;;;4.98;53.14;99605.13;4995294;28;20038;-70
2024/02/03 03:40:23;;;;;;;14.68;9.38;;;;;;;4.91;53.07;99598.53;4995638;28;20038;-71
2024/02/03 03:42:49;;;;;;;11.95;8.45;;;;;;;4.95;53.16;99606.09;4995670;28;20117;-70
2024/02/03 03:45:16;;;;;;;13.02;9.05;;;;;;;4.91;53.13;99595.94;4979234;28;20037;-70
2024/02/03 03:47:42;;;;;;;13.20;8.60;;;;;;;4.89;53.07;99596.81;4995477;28;20088;-71
2024/02/03 03:50:08;;;;;;;16.10;8.85;;;;;;;4.82;53.03;99587.63;4978933;28;20073;-70
2024/02/03 03:52:34;;;;;;;15.25;8.48;;;;;;;4.86;52.87;99585.75;4978983;28;20120;-71
2024/02/03 03:55:00;;;;;;;12.63;7.90;;;;;;;4.78;53.05;99574.88;5012467;28;20044;-70
2024/02/03 03:57:26;;;;;;;13.40;8.82;;;;;;;4.80;53.13;99579.06;4979314;28;20137;-72
2024/02/03 03:59:51;;;;;;;13.23;8.77;;;;;;;4.78;52.94;99578.28;4995008;28;20034;-70
2024/02/03 04:02:18;;;;;;;12.82;8.73;;;;;;;4.78;53.17;99578.28;4994779;28;20046;-70
2024/02/03 04:04:44;;;;;;;14.70;8.48;;;;;;;4.72;53.32;99570.78;5012845;28;20037;-70
2024/02/03 04:07:09;;;;;;;11.68;8.30;;;;;;;4.73;53.06;99572.47;4979404;28;20038;-70
2024/02/03 04:09:35;;;;;;;12.50;8.02;;;;;;;4.72;53.00;99565.59;4995215;28;20383;-71
2024/02/03 04:12:00;;;;;;;13.13;8.77;;;;;;;4.71;53.34;99569.06;4978514;28;20104;-71
2024/02/03 04:14:26;;;;;;;14.10;8.75;;;;;;;4.70;53.52;99567.41;5012277;28;20469;-70
2024/02/03 04:16:51;;;;;;;12.10;8.00;;;;;;;4.66;53.50;99561.50;4994476;28;20050;-71
2024/02/03 04:19:17;;;;;;;11.27;7.72;;;;;;;4.65;53.60;99570.19;4994310;28;20038;-71
2024/02/03 04:21:42;;;;;;;12.02;7.97;;;;;;;4.65;53.64;99559.81;5012386;28;20108;-70
2024/02/03 04:24:08;;;;;;;13.73;8.60;;;;;;;4.64;53.41;99557.31;4995032;28;20037;-71
2024/02/03 04:26:33;;;;;;;14.63;8.52;;;;;;;4.63;53.52;99565.94;4978623;28;20041;-71
2024/02/03 04:28:59;;;;;;;11.98;7.95;;;;;;;4.56;53.50;99551.59;4994588;28;20044;-70
2024/02/03 04:31:24;;;;;;;14.07;8.52;;;;;;;4.57;53.40;99550.66;4965924;28;20048;-71
2024/02/03 04:33:50;;;;;;;11.93;7.88;;;;;;;4.55;53.53;99550.72;5016376;28;20532;-71
2024/02/03 04:36:17;;;;;;;15.70;8.85;;;;;;;4.53;53.60;99552.53;4982924;28;20091;-71
2024/02/03 04:38:43;;;;;;;12.63;8.18;;;;;;;4.50;53.45;99548.31;4982538;28;20030;-70
2024/02/03 04:41:08;;;;;;;13.30;7.80;;;;;;;4.50;53.42;99553.47;4998810;28;20048;-70
2024/02/03 04:43:34;;;;;;;11.93;8.35;;;;;;;4.46;53.31;99562.28;4982524;28;20038;-71
2024/02/03 04:46:00;;;;;;;12.68;7.32;;;;;;;4.50;53.71;99566.41;4998322;28;20045;-69
2024/02/03 04:48:26;;;;;;;12.68;8.15;;;;;;;4.49;53.57;99572.50;4983028;28;20561;-72
2024/02/03 04:50:51;;;;;;;13.52;8.30;;;;;;;4.45;53.30;99567.50;4982230;28;20048;-70
2024/02/03 04:53:17;;;;;;;15.23;8.38;;;;;;;4.42;53.67;99552.09;4996913;28;20045;-72
2024/02/03 04:55:42;;;;;;;15.27;8.00;;;;;;;4.45;53.68;99568.34;4981302;28;20117;-70
2024/02/03 04:58:08;;;;;;;12.00;7.93;;;;;;;4.42;53.43;99562.44;4998524;28;20037;-71
2024/02/03 05:00:33;;;;;;;14.32;8.00;;;;;;;4.43;53.47;99566.69;4998128;28;20049;-70
2024/02/03 05:02:59;;;;;;;15.30;8.40;;;;;;;4.37;53.45;99552.28;4998750;28;20409;-70
2024/02/03 05:05:24;;;;;;;14.00;8.13;;;;;;;4.35;53.28;99554.09;4982466;28;20042;-69
2024/02/03 05:07:50;;;;;;;13.80;8.77;;;;;;;4.38;53.67;99564.31;4965517;28;20049;-69
2024/02/03 05:10:17;;;;;;;14.07;8.50;;;;;;;4.36;53.61;99566.09;4998269;28;20033;-70
2024/02/03 05:12:42;;;;;;;13.65;8.95;;;;;;;4.30;53.35;99554.25;4981872;28;20571;-70
2024/02/03 05:15:08;;;;;;;16.60;8.45;;;;;;;4.36;53.67;99560.94;4981097;28;20049;-70
2024/02/03 05:17:34;;;;;;;13.27;8.63;;;;;;;4.35;53.70;99561.84;4998078;28;20034;-70
2024/02/03 05:19:59;;;;;;;14.25;8.85;;;;;;;4.35;53.83;99562.69;4998182;28;20029;-70
2024/02/03 05:22:25;;;;;;;14.10;8.95;;;;;;;4.30;53.74;99550.81;4997918;28;20501;-71
2024/02/03 05:24:50;;;;;;;13.85;9.27;;;;;;;4.34;53.13;99558.41;4997768;28;20401;-70
2024/02/03 05:27:16;;;;;;;14.40;9.13;;;;;;;4.33;53.55;99564.47;4981615;28;20084;-69
2024/02/03 05:29:41;;;;;;;13.95;9.27;;;;;;;4.33;53.80;99558.44;4997554;28;20033;-69
2024/02/03 05:32:07;;;;;;;15.77;8.88;;;;;;;4.32;53.44;99551.63;4981822;28;20045;-70
2024/02/03 05:34:32;;;;;;;14.32;8.88;;;;;;;4.34;53.39;99553.22;4998090;28;20046;-71
2024/02/03 05:36:58;;;;;;;12.25;8.05;;;;;;;4.29;53.56;99547.41;5015246;28;20448;-71
2024/02/03 05:39:23;;;;;;;14.30;8.70;;;;;;;4.37;53.37;99554.88;4997551;28;20034;-71
2024/02/03 05:41:49;;;;;;;15.40;9.38;;;;;;;4.42;53.32;99558.13;4997135;28;20058;-71
2024/02/03 05:44:14;;;;;;;14.40;9.07;;;;;;;4.48;53.05;99547.53;5014763;28;20042;-69
2024/02/03 05:46:40;;;;;;;16.60;8.63;;;;;;;4.58;52.86;99545.44;5014787;28;20342;-72
2024/02/03 05:49:05;;;;;;;15.25;8.77;;;;;;;4.70;52.84;99547.56;4997507;28;20086;-69
2024/02/03 05:51:31;;;;;;;12.95;8.38;;;;;;;4.84;52.48;99551.34;4980576;28;20054;-71
2024/02/03 05:53:59;;;;;;;15.50;8.60;;;;;;;5.02;51.89;99554.94;4980794;28;20049;-70
2024/02/03 05:56:25;;;;;;;14.85;8.73;;;;;;;5.11;51.91;99539.03;4997440;28;20053;-70
2024/02/03 05:58:50;;;;;;;13.88;8.77;;;;;;;5.32;51.24;99552.00;4996795;28;20041;-71
2024/02/03 06:01:19;;;;;;;14.52;8.55;;;;;;;5.48;51.68;99562.56;4980713;28;20038;-70
2024/02/03 06:03:46;;;;;;;15.13;8.48;;;;;;;5.70;51.27;99572.84;4997340;28;20041;-70
2024/02/03 06:06:11;;;;;;;12.32;8.40;;;;;;;5.93;50.71;99559.75;5014387;28;20044;-71
2024/02/03 06:08:37;;;;;;;12.25;7.88;;;;;;;6.17;49.79;99546.63;4996825;28;20026;-71
2024/02/03 06:11:02;;;;;;;12.25;8.18;;;;;;;6.49;49.77;99541.72;4980623;28;20046;-71
2024/02/03 06:13:28;;;;;;;9.88;7.22;;;;;;;6.91;49.08;99540.59;4996594;28;20281;-70
2024/02/03 06:15:53;;;;;;;12.45;7.93;;;;;;;7.43;48.14;99539.75;4996594;28;20050;-70
2024/02/03 06:18:19;;;;;;;12.85;7.82;;;;;;;7.93;47.93;99527.69;4996948;28;20042;-70
2024/02/03 06:20:47;;;;;;;11.05;7.72;;;;;;;8.54;47.02;99549.59;4980410;28;20424;-71
2024/02/03 06:23:12;;;;;;;13.80;8.57;;;;;;;9.13;45.80;99557.59;4996627;28;20527;-71
2024/02/03 06:25:38;;;;;;;13.95;7.55;;;;;;;9.69;44.82;99539.53;4996457;28;20053;-71
2024/02/03 06:28:04;;;;;;;10.60;7.68;;;;;;;10.31;43.40;99539.25;4980350;28;20073;-73
2024/02/03 06:30:29;;;;;;;11.32;7.50;;;;;;;10.99;42.56;99549.81;4996678;28;20057;-72
2024/02/03 06:32:54;;;;;;;11.82;8.10;;;;;;;11.63;41.20;99538.66;4980507;28;20041;-71
2024/02/03 06:35:20;;;;;;;12.38;8.02;;;;;;;12.35;40.12;99531.06;4980494;28;20038;-72
2024/02/03 06:37:45;;;;;;;11.20;7.97;;;;;;;13.18;38.50;99529.44;4996112;28;20049;-71
2024/02/03 06:40:11;;;;;;;10.65;7.82;;;;;;;13.95;37.00;99515.78;4995576;28;20460;-70
2024/02/03 06:42:37;;;;;;;10.85;7.95;;;;;;;14.89;35.02;99518.81;5012010;28;20041;-71
2024/02/03 06:45:02;;;;;;;11.38;8.23;;;;;;;15.80;33.42;99521.00;5013530;28;20049;-72
2024/02/03 06:47:28;;;;;;;13.38;8.98;;;;;;;16.80;31.67;99523.59;4996312;28;20481;-72
2024/02/03 06:49:53;;;;;;;15.27;10.68;;;;;;;17.72;30.07;99524.91;4995846;28;20045;-72
2024/02/03 06:52:19;;;;;;;16.27;11.68;;;;;;;18.67;28.54;99531.84;4978127;28;20520;-73
2024/02/03 06:54:44;;;;;;;17.00;11.82;;;;;;;19.56;27.30;99532.78;5013274;28;20037;-71
2024/02/03 06:57:10;;;;;;;18.13;11.13;;;;;;;20.37;25.87;99523.63;5011953;28;20033;-71
2024/02/03 06:59:35;;;;;;;16.92;10.65;;;;;;;21.30;25.05;99541.16;4979431;28;20041;-70
2024/02/03 07:02:01;;;;;;;14.68;10.40;;;;;;;21.98;23.92;99545.22;5013097;28;20464;-71
2024/02/03 07:04:26;;;;;;;15.73;11.77;;;;;;;22.55;22.78;99535.34;4995965;28;20049;-69
2024/02/03 07:06:51;;;;;;;19.30;13.27;;;;;;;23.16;22.27;99538.13;5012851;28;20394;-72
2024/02/03 07:09:17;;;;;;;22.58;14.90;;;;;;;23.82;21.13;99540.16;4979263;28;20049;-72
2024/02/03 07:11:42;;;;;;;20.25;14.45;;;;;;;24.42;20.35;99540.97;4995595;28;20053;-71
2024/02/03 07:14:08;;;;;;;24.00;15.00;;;;;;;25.03;19.32;99540.63;4979910;28;20042;-71
2024/02/03 07:16:33;;;;;;;22.73;14.38;;;;;;;25.70;18.79;99533.13;4995572;28;20069;-71
2024/02/03 07:18:59;;;;;;;20.23;13.43;;;;;;;26.15;18.24;99530.09;4978316;28;20034;-71
2024/02/03 07:21:24;;;;;;;25.08;12.32;;;;;;;26.65;17.88;99522.69;4975996;28;20045;-71
2024/02/03 07:23:50;;;;;;;18.33;12.52;;;;;;;26.83;18.03;99527.44;4975760;28;20420;-72
2024/02/03 07:26:16;;;;;;;19.33;12.50;;;;;;;26.73;17.83;99534.25;4976006;28;20058;-70
2024/02/03 07:28:42;;;;;;;24.35;14.57;;;;;;;26.63;19.63;99531.91;4975844;28;20038;-69
2024/02/03 07:31:07;;;;;;;29.92;22.65;;;;;;;26.13;19.57;99532.16;4976158;28;20105;-72
2024/02/03 07:33:32;;;;;;;27.38;18.60;;;;;;;25.60;19.61;99533.50;4975975;28;20038;-70
2024/02/03 07:35:58;;;;;;;25.48;18.67;;;;;;;25.22;20.68;99538.28;4993498;28;20042;-73
2024/02/03 07:38:25;;;;;;;23.40;16.50;;;;;;;24.90;21.31;99535.94;4968824;28;20425;-68
2024/02/03 07:40:51;;;;;;;18.80;14.43;;;;;;;24.69;21.72;99523.44;4997120;28;20069;-72
2024/02/03 07:43:16;;;;;;;13.55;9.77;;;;;;;24.38;24.19;99519.19;4980853;28;20277;-72
2024/02/03 07:45:42;;;;;;;20.10;10.80;;;;;;;24.25;23.23;99516.34;4994981;28;20512;-70
2024/02/03 07:48:07;;;;;;;17.80;10.63;;;;;;;24.09;23.09;99519.22;4977998;28;20045;-77
2024/02/03 07:50:33;;;;;;;17.50;11.90;;;;;;;23.88;22.31;99504.81;4978993;28;20072;-79
2024/02/03 07:52:58;;;;;;;16.83;11.93;;;;;;;23.67;22.15;99502.84;4987031;28;20442;-76
2024/02/03 07:55:24;;;;;;;18.25;10.40;;;;;;;23.58;25.51;99507.44;4956768;28;20109;-76
2024/02/03 07:57:49;;;;;;;15.10;9.73;;;;;;;23.43;26.61;99506.59;4978818;28;20151;-73
2024/02/03 08:00:15;;;;;;;15.32;8.98;;;;;;;23.34;26.79;99508.53;4990047;28;20038;-68
2024/02/03 08:02:42;;;;;;;17.83;11.38;;;;;;;23.21;24.69;99508.28;5011883;28;20065;-70
2024/02/03 08:05:07;;;;;;;17.27;10.93;;;;;;;23.04;23.81;99516.41;4993821;28;20034;-71
2024/02/03 08:07:33;;;;;;;22.88;13.00;;;;;;;23.11;22.95;99520.03;4994014;28;20033;-71
2024/02/03 08:09:58;;;;;;;20.05;15.27;;;;;;;23.27;22.44;99507.56;5011564;28;20038;-70
2024/02/03 08:12:24;;;;;;;17.55;13.25;;;;;;;23.21;22.26;99509.09;4989041;28;20104;-71
2024/02/03 08:14:49;;;;;;;17.75;11.88;;;;;;;23.07;21.91;99507.22;4976085;28;20126;-72
2024/02/03 08:17:15;;;;;;;22.83;11.77;;;;;;;23.17;21.48;99513.16;4975455;28;20145;-72
2024/02/03 08:19:40;;;;;;;14.25;10.70;;;;;;;23.23;21.48;99507.13;4992592;28;20073;-72
2024/02/03 08:22:06;;;;;;;18.20;10.32;;;;;;;23.33;21.33;99506.03;4966586;28;20038;-72
2024/02/03 08:24:31;;;;;;;14.75;9.73;;;;;;;23.38;21.21;99500.97;4981865;28;20049;-72
2024/02/03 08:26:57;;;;;;;15.68;9.65;;;;;;;23.53;21.02;99509.84;4974740;28;20042;-71
2024/02/03 08:29:22;;;;;;;14.60;10.75;;;;;;;23.66;20.83;99510.00;4992587;28;20035;-71
2024/02/03 08:31:48;;;;;;;18.35;11.13;;;;;;;23.74;20.85;99505.63;4986354;28;20060;-72
2024/02/03 08:34:13;;;;;;;14.68;10.43;;;;;;;23.70;20.94;99502.47;5012320;28;20049;-71
2024/02/03 08:36:39;;;;;;;17.77;11.35;;;;;;;23.69;23.61;99502.66;4994696;28;20412;-70
2024/02/03 08:39:04;;;;;;;18.75;10.73;;;;;;;23.80;21.92;99496.88;4992201;28;20042;-82
2024/02/03 08:41:30;;;;;;;14.20;11.52;;;;;;;23.83;21.49;99509.81;4960861;28;20465;-72
2024/02/03 08:43:55;;;;;;;15.27;9.45;;;;;;;23.82;22.39;99498.34;5011496;28;20042;-75
2024/02/03 08:46:21;;;;;;;14.43;9.93;;;;;;;23.94;21.40;99498.75;4992762;28;20037;-74
2024/02/03 08:48:46;;;;;;;11.75;9.02;;;;;;;24.05;20.70;99502.75;4993177;28;20041;-72
2024/02/03 08:51:16;;;;;;;13.95;10.55;;;;;;;24.09;20.51;99489.91;4993328;28;20103;-74
2024/02/03 08:53:41;;;;;;;11.73;9.05;;;;;;;24.09;20.30;99484.56;5011325;28;20041;-69
2024/02/03 08:56:07;;;;;;;12.15;8.90;;;;;;;24.10;19.69;99484.38;5011046;28;20413;-73
2024/02/03 08:58:32;;;;;;;11.63;8.95;;;;;;;23.94;19.91;99479.22;4992438;28;20038;-72
2024/02/03 09:00:58;;;;;;;17.77;13.13;;;;;;;24.10;19.67;99472.84;5010064;28;20120;-72
2024/02/03 09:03:23;;;;;;;14.73;11.48;;;;;;;24.14;19.83;99464.31;4992584;28;20049;-73
2024/02/03 09:05:49;;;;;;;17.10;11.57;;;;;;;24.26;19.71;99466.47;4975802;28;20077;-71
2024/02/03 09:08:14;;;;;;;14.85;11.15;;;;;;;24.41;19.50;99471.78;4975681;28;20042;-71
2024/02/03 09:10:40;;;;;;;12.75;9.00;;;;;;;24.15;19.44;99471.31;4992156;28;20525;-70
2024/02/03 09:13:05;;;;;;;11.93;8.73;;;;;;;24.51;19.50;99473.13;5009998;28;20041;-72
2024/02/03 09:15:31;;;;;;;11.68;7.95;;;;;;;25.05;18.87;99470.97;4994616;28;20045;-71
2024/02/03 09:17:56;;;;;;;11.27;8.00;;;;;;;25.39;18.09;99474.75;4981243;28;20505;-70
2024/02/03 09:20:22;;;;;;;9.98;7.05;;;;;;;25.68;17.88;99471.03;5014232;28;20063;-70
2024/02/03 09:22:47;;;;;;;11.93;7.10;;;;;;;26.13;17.57;99466.09;5014546;28;20108;-72
2024/02/03 09:25:13;;;;;;;10.68;6.95;;;;;;;26.71;16.80;99457.59;4996594;28;20116;-71
2024/02/03 09:27:39;;;;;;;8.90;6.38;;;;;;;27.42;16.30;99466.03;5014662;28;20128;-72
2024/02/03 09:30:05;;;;;;;9.40;7.00;;;;;;;28.44;15.32;99460.09;4996685;28;20061;-71
2024/02/03 09:32:31;;;;;;;8.38;6.03;;;;;;;29.54;14.87;99448.88;5013914;28;20119;-71
2024/02/03 09:34:56;;;;;;;7.32;5.60;;;;;;;30.50;14.09;99448.31;4996611;28;20525;-72
2024/02/03 09:37:22;;;;;;;7.60;5.53;;;;;;;31.29;13.01;99439.16;5014288;28;20034;-71
2024/02/03 09:39:47;;;;;;;7.45;5.40;;;;;;;31.20;12.95;99431.41;4995726;28;20041;-71
2024/02/03 09:42:13;;;;;;;7.38;5.22;;;;;;;30.67;13.22;99427.72;4995935;28;20096;-72
2024/02/03 09:44:38;;;;;;;9.32;5.65;;;;;;;29.58;14.02;99422.34;4979894;28;20111;-71
2024/02/03 09:47:04;;;;;;;8.80;5.70;;;;;;;28.65;14.98;99419.47;4996203;28;20034;-71
2024/02/03 09:49:29;;;;;;;9.73;6.38;;;;;;;27.68;15.02;99419.56;4980048;28;20045;-71
2024/02/03 09:51:55;;;;;;;11.00;5.93;;;;;;;26.96;16.00;99413.31;4996080;28;20142;-71
2024/02/03 09:54:21;;;;;;;6.25;5.57;;;;;;;26.94;16.56;99408.16;4995755;28;20045;-70
2024/02/03 09:56:46;;;;;;;7.60;5.90;;;;;;;27.06;16.13;99408.38;4995852;28;20042;-73
2024/02/03 09:59:13;;;;;;;8.20;6.18;;;;;;;27.22;15.96;99391.00;4996296;28;20077;-74
2024/02/03 10:01:39;;;;;;;7.33;5.63;;;;;;;27.51;15.67;99397.75;4996296;28;20529;-70
2024/02/03 10:04:04;;;;;;;7.95;5.80;;;;;;;27.47;15.52;99398.38;4996636;28;20082;-72
2024/02/03 10:06:30;;;;;;;5.85;5.18;;;;;;;27.34;15.71;99386.69;5013485;28;20490;-73
2024/02/03 10:08:56;;;;;;;8.63;6.10;;;;;;;27.03;15.75;99379.31;4995540;28;20045;-74
2024/02/03 10:11:21;;;;;;;9.07;5.78;;;;;;;27.00;15.90;99364.47;4996064;28;20115;-72
2024/02/03 10:14:02;;;;;;;7.07;5.75;;;;;;;26.60;16.05;99377.03;4975799;28;20056;-73
2024/02/03 10:16:28;;;;;;;7.88;5.68;;;;;;;26.50;16.26;99364.91;4998195;28;20038;-72
2024/02/03 10:18:53;;;;;;;10.25;6.00;;;;;;;26.34;16.48;99367.97;4996194;28;20045;-74
2024/02/03 10:21:19;;;;;;;8.30;5.20;;;;;;;25.89;16.70;99360.44;5013317;28;20397;-73
2024/02/03 10:23:51;;;;;;;8.65;5.25;;;;;;;25.91;16.96;99353.03;4995870;28;20045;-71
2024/02/03 10:26:16;;;;;;;8.75;5.55;;;;;;;25.42;16.90;99356.75;4995849;28;20394;-73
2024/02/03 10:28:45;;;;;;;8.65;5.38;;;;;;;25.26;17.19;99366.72;4978455;28;20052;-71
2024/02/03 10:31:11;;;;;;;7.43;5.38;;;;;;;25.29;17.43;99349.50;4980369;28;20050;-73
2024/02/03 10:33:37;;;;;;;11.27;5.10;;;;;;;25.16;17.28;99354.72;4995604;28;20052;-73
2024/02/03 10:36:03;;;;;;;6.97;4.88;;;;;;;24.99;17.27;99351.56;4995614;28;20069;-74
2024/02/03 10:38:29;;;;;;;6.57;4.63;;;;;;;24.91;17.54;99340.00;4995039;28;20508;-74
2024/02/03 10:40:55;;;;;;;9.60;5.05;;;;;;;24.70;17.59;99326.72;4995047;28;20065;-74
2024/02/03 10:43:21;;;;;;;8.70;5.53;;;;;;;23.94;17.28;99324.59;4995526;28;20034;-75
2024/02/03 10:45:53;;;;;;;7.82;5.10;;;;;;;23.39;18.22;99318.81;4962752;28;20516;-74
2024/02/03 10:48:19;;;;;;;9.52;5.10;;;;;;;23.01;18.30;99311.75;4980010;28;20042;-71
2024/02/03 10:50:46;;;;;;;9.23;5.20;;;;;;;22.88;18.66;99320.38;4978776;28;20034;-72
2024/02/03 10:53:15;;;;;;;10.50;5.07;;;;;;;22.72;18.93;99301.91;4962702;28;20077;-71
2024/02/03 10:55:43;;;;;;;9.90;4.65;;;;;;;22.86;19.04;99311.72;4963229;28;20037;-71
2024/02/03 10:58:09;;;;;;;9.48;4.97;;;;;;;22.44;18.99;99289.22;4979211;28;20037;-72
2024/02/03 11:00:34;;;;;;;8.05;4.60;;;;;;;22.36;19.37;99297.25;4978632;28;20030;-72
2024/02/03 11:03:00;;;;;;;6.43;4.38;;;;;;;22.13;19.28;99287.44;4994783;28;20050;-73
2024/02/03 11:05:29;;;;;;;6.88;4.18;;;;;;;22.20;19.38;99283.06;5012514;28;20099;-72
2024/02/03 11:08:02;;;;;;;6.05;4.13;;;;;;;22.31;19.06;99284.50;4995171;28;20501;-71
2024/02/03 11:10:28;;;;;;;6.85;4.28;;;;;;;22.15;19.46;99282.75;4994409;28;20072;-73
2024/02/03 11:13:00;;;;;;;7.40;4.70;;;;;;;22.09;19.72;99278.19;4995068;28;20073;-74
2024/02/03 11:15:25;;;;;;;6.63;4.20;;;;;;;21.84;19.61;99266.91;5012109;28;20105;-71
2024/02/03 11:17:53;;;;;;;6.75;4.28;;;;;;;21.65;19.66;99262.88;4994331;28;20409;-72
2024/02/03 11:20:19;;;;;;;7.35;3.78;;;;;;;21.44;19.59;99258.13;4995139;28;20095;-73
2024/02/03 11:22:52;;;;;;;7.30;3.55;;;;;;;21.42;19.86;99249.53;4978522;28;20190;-72